sensor_id;sensor_type;location;lat;lon;timestamp;P1;durP1;ratioP1;P2;durP2;ratioP2
18732;SDS011;9495;51.210;2.934;2024-03-02T00:01:39;3.00;;;1.40;;
18732;SDS011;9495;51.210;2.934;2024-03-02T00:04:08;2.83;;;1.30;;
18732;SDS011;9495;51.210;2.934;2024-03-02T00:06:37;2.23;;;1.43;;
18732;SDS011;9495;51.210;2.934;2024-03-02T00:09:05;2.23;;;1.20;;
18732;SDS011;9495;51.210;2.934;2024-03-02T00:11:39;2.13;;;1.23;;
18732;SDS011;9495;51.210;2.934;2024-03-02T00:14:07;4.27;;;1.70;;
18732;SDS011;9495;51.210;2.934;2024-03-02T00:16:37;1.97;;;1.30;;
18732;SDS011;9495;51.210;2.934;2024-03-02T00:19:06;2.73;;;1.27;;
18732;SDS011;9495;51.210;2.934;2024-03-02T00:21:36;2.90;;;1.53;;
18732;SDS011;9495;51.210;2.934;2024-03-02T00:24:07;2.50;;;1.53;;
18732;SDS011;9495;51.210;2.934;2024-03-02T00:26:46;2.00;;;1.40;;
18732;SDS011;9495;51.210;2.934;2024-03-02T00:29:15;2.87;;;1.40;;
18732;SDS011;9495;51.210;2.934;2024-03-02T00:31:46;5.07;;;1.57;;
18732;SDS011;9495;51.210;2.934;2024-03-02T00:34:15;2.87;;;1.50;;
18732;SDS011;9495;51.210;2.934;2024-03-02T00:36:45;2.30;;;1.70;;
18732;SDS011;9495;51.210;2.934;2024-03-02T00:39:14;1.50;;;1.40;;
18732;SDS011;9495;51.210;2.934;2024-03-02T00:41:44;4.37;;;1.67;;
18732;SDS011;9495;51.210;2.934;2024-03-02T00:44:14;2.20;;;1.30;;
18732;SDS011;9495;51.210;2.934;2024-03-02T00:46:46;1.70;;;1.33;;
18732;SDS011;9495;51.210;2.934;2024-03-02T00:49:17;3.73;;;1.57;;
18732;SDS011;9495;51.210;2.934;2024-03-02T00:51:48;5.57;;;1.60;;
18732;SDS011;9495;51.210;2.934;2024-03-02T00:54:19;2.93;;;1.37;;
18732;SDS011;9495;51.210;2.934;2024-03-02T00:56:48;3.00;;;1.80;;
18732;SDS011;9495;51.210;2.934;2024-03-02T00:59:17;5.43;;;1.60;;
18732;SDS011;9495;51.210;2.934;2024-03-02T01:01:47;3.90;;;1.43;;
18732;SDS011;9495;51.210;2.934;2024-03-02T01:04:16;2.83;;;1.30;;
18732;SDS011;9495;51.210;2.934;2024-03-02T01:06:44;1.87;;;1.27;;
18732;SDS011;9495;51.210;2.934;2024-03-02T01:09:13;3.10;;;1.50;;
18732;SDS011;9495;51.210;2.934;2024-03-02T01:11:43;4.77;;;1.70;;
18732;SDS011;9495;51.210;2.934;2024-03-02T01:14:11;4.87;;;1.50;;
18732;SDS011;9495;51.210;2.934;2024-03-02T01:16:40;1.43;;;1.20;;
18732;SDS011;9495;51.210;2.934;2024-03-02T01:19:09;1.53;;;1.40;;
18732;SDS011;9495;51.210;2.934;2024-03-02T01:21:38;3.13;;;1.30;;
18732;SDS011;9495;51.210;2.934;2024-03-02T01:24:07;3.73;;;1.50;;
18732;SDS011;9495;51.210;2.934;2024-03-02T01:26:35;3.57;;;1.40;;
18732;SDS011;9495;51.210;2.934;2024-03-02T01:29:04;3.27;;;1.50;;
18732;SDS011;9495;51.210;2.934;2024-03-02T01:31:32;2.13;;;1.60;;
18732;SDS011;9495;51.210;2.934;2024-03-02T01:34:01;2.17;;;1.60;;
18732;SDS011;9495;51.210;2.934;2024-03-02T01:36:31;2.90;;;1.40;;
18732;SDS011;9495;51.210;2.934;2024-03-02T01:39:00;2.43;;;1.57;;
18732;SDS011;9495;51.210;2.934;2024-03-02T01:41:28;3.33;;;1.53;;
18732;SDS011;9495;51.210;2.934;2024-03-02T01:43:56;3.97;;;1.37;;
18732;SDS011;9495;51.210;2.934;2024-03-02T01:46:25;4.03;;;1.50;;
18732;SDS011;9495;51.210;2.934;2024-03-02T01:48:53;3.07;;;1.30;;
18732;SDS011;9495;51.210;2.934;2024-03-02T01:51:22;3.53;;;1.50;;
18732;SDS011;9495;51.210;2.934;2024-03-02T01:53:52;1.67;;;1.30;;
18732;SDS011;9495;51.210;2.934;2024-03-02T01:56:20;3.87;;;1.80;;
18732;SDS011;9495;51.210;2.934;2024-03-02T01:58:49;5.00;;;1.97;;
18732;SDS011;9495;51.210;2.934;2024-03-02T02:01:18;1.73;;;1.40;;
18732;SDS011;9495;51.210;2.934;2024-03-02T02:03:46;3.60;;;1.80;;
18732;SDS011;9495;51.210;2.934;2024-03-02T02:06:15;2.53;;;1.43;;
18732;SDS011;9495;51.210;2.934;2024-03-02T02:08:44;8.30;;;1.60;;
18732;SDS011;9495;51.210;2.934;2024-03-02T02:11:15;2.50;;;1.47;;
18732;SDS011;9495;51.210;2.934;2024-03-02T02:13:44;2.27;;;1.53;;
18732;SDS011;9495;51.210;2.934;2024-03-02T02:16:13;2.10;;;1.30;;
18732;SDS011;9495;51.210;2.934;2024-03-02T02:18:42;4.10;;;1.67;;
18732;SDS011;9495;51.210;2.934;2024-03-02T02:21:10;2.57;;;1.50;;
18732;SDS011;9495;51.210;2.934;2024-03-02T02:23:40;6.80;;;1.63;;
18732;SDS011;9495;51.210;2.934;2024-03-02T02:26:12;5.03;;;1.60;;
18732;SDS011;9495;51.210;2.934;2024-03-02T02:28:41;4.87;;;1.57;;
18732;SDS011;9495;51.210;2.934;2024-03-02T02:31:13;3.00;;;1.80;;
18732;SDS011;9495;51.210;2.934;2024-03-02T02:33:42;5.10;;;2.00;;
18732;SDS011;9495;51.210;2.934;2024-03-02T02:36:10;7.60;;;2.20;;
18732;SDS011;9495;51.210;2.934;2024-03-02T02:38:42;6.20;;;1.93;;
18732;SDS011;9495;51.210;2.934;2024-03-02T02:41:13;5.83;;;2.00;;
18732;SDS011;9495;51.210;2.934;2024-03-02T02:43:41;4.63;;;2.30;;
18732;SDS011;9495;51.210;2.934;2024-03-02T02:46:10;3.57;;;1.83;;
18732;SDS011;9495;51.210;2.934;2024-03-02T02:48:39;6.00;;;1.77;;
18732;SDS011;9495;51.210;2.934;2024-03-02T02:51:07;5.27;;;2.20;;
18732;SDS011;9495;51.210;2.934;2024-03-02T02:53:36;4.77;;;1.90;;
18732;SDS011;9495;51.210;2.934;2024-03-02T02:56:08;4.67;;;1.57;;
18732;SDS011;9495;51.210;2.934;2024-03-02T02:58:36;6.83;;;2.40;;
18732;SDS011;9495;51.210;2.934;2024-03-02T03:01:05;6.30;;;1.87;;
18732;SDS011;9495;51.210;2.934;2024-03-02T03:03:34;4.50;;;1.70;;
18732;SDS011;9495;51.210;2.934;2024-03-02T03:06:02;3.87;;;1.83;;
18732;SDS011;9495;51.210;2.934;2024-03-02T03:08:31;3.60;;;2.07;;
18732;SDS011;9495;51.210;2.934;2024-03-02T03:11:00;6.67;;;1.73;;
18732;SDS011;9495;51.210;2.934;2024-03-02T03:13:30;6.43;;;1.70;;
18732;SDS011;9495;51.210;2.934;2024-03-02T03:16:06;4.30;;;1.87;;
18732;SDS011;9495;51.210;2.934;2024-03-02T03:18:35;6.53;;;2.00;;
18732;SDS011;9495;51.210;2.934;2024-03-02T03:21:05;6.23;;;2.00;;
18732;SDS011;9495;51.210;2.934;2024-03-02T03:23:33;6.40;;;1.83;;
18732;SDS011;9495;51.210;2.934;2024-03-02T03:26:02;4.57;;;1.50;;
18732;SDS011;9495;51.210;2.934;2024-03-02T03:28:30;3.63;;;1.70;;
18732;SDS011;9495;51.210;2.934;2024-03-02T03:30:59;6.97;;;1.97;;
18732;SDS011;9495;51.210;2.934;2024-03-02T03:33:30;6.50;;;1.90;;
18732;SDS011;9495;51.210;2.934;2024-03-02T03:35:59;10.97;;;2.43;;
18732;SDS011;9495;51.210;2.934;2024-03-02T03:38:28;6.00;;;2.23;;
18732;SDS011;9495;51.210;2.934;2024-03-02T03:40:57;6.00;;;1.87;;
18732;SDS011;9495;51.210;2.934;2024-03-02T03:43:25;6.73;;;2.10;;
18732;SDS011;9495;51.210;2.934;2024-03-02T03:45:54;5.40;;;2.30;;
18732;SDS011;9495;51.210;2.934;2024-03-02T03:48:23;4.47;;;2.20;;
18732;SDS011;9495;51.210;2.934;2024-03-02T03:50:58;6.33;;;2.90;;
18732;SDS011;9495;51.210;2.934;2024-03-02T03:53:27;5.20;;;2.70;;
18732;SDS011;9495;51.210;2.934;2024-03-02T03:55:55;9.33;;;2.93;;
18732;SDS011;9495;51.210;2.934;2024-03-02T03:58:23;6.63;;;2.83;;
18732;SDS011;9495;51.210;2.934;2024-03-02T04:00:52;10.50;;;3.27;;
18732;SDS011;9495;51.210;2.934;2024-03-02T04:03:20;10.73;;;3.77;;
18732;SDS011;9495;51.210;2.934;2024-03-02T04:05:49;10.27;;;4.10;;
18732;SDS011;9495;51.210;2.934;2024-03-02T04:08:19;6.47;;;3.70;;
18732;SDS011;9495;51.210;2.934;2024-03-02T04:10:48;8.53;;;3.67;;
18732;SDS011;9495;51.210;2.934;2024-03-02T04:13:17;7.00;;;4.23;;
18732;SDS011;9495;51.210;2.934;2024-03-02T04:15:45;8.37;;;3.70;;
18732;SDS011;9495;51.210;2.934;2024-03-02T04:18:14;8.10;;;4.40;;
18732;SDS011;9495;51.210;2.934;2024-03-02T04:20:43;8.73;;;4.70;;
18732;SDS011;9495;51.210;2.934;2024-03-02T04:23:11;8.43;;;4.27;;
18732;SDS011;9495;51.210;2.934;2024-03-02T04:25:41;14.70;;;4.40;;
18732;SDS011;9495;51.210;2.934;2024-03-02T04:28:09;8.07;;;4.40;;
18732;SDS011;9495;51.210;2.934;2024-03-02T04:30:39;6.77;;;4.30;;
18732;SDS011;9495;51.210;2.934;2024-03-02T04:33:07;10.07;;;4.53;;
18732;SDS011;9495;51.210;2.934;2024-03-02T04:35:36;10.20;;;4.50;;
18732;SDS011;9495;51.210;2.934;2024-03-02T04:38:05;8.07;;;4.20;;
18732;SDS011;9495;51.210;2.934;2024-03-02T04:40:33;11.53;;;4.40;;
18732;SDS011;9495;51.210;2.934;2024-03-02T04:43:03;11.73;;;4.60;;
18732;SDS011;9495;51.210;2.934;2024-03-02T04:45:33;6.47;;;3.70;;
18732;SDS011;9495;51.210;2.934;2024-03-02T04:48:01;7.80;;;4.00;;
18732;SDS011;9495;51.210;2.934;2024-03-02T04:50:29;10.10;;;4.20;;
18732;SDS011;9495;51.210;2.934;2024-03-02T04:52:58;8.97;;;4.00;;
18732;SDS011;9495;51.210;2.934;2024-03-02T04:55:27;11.27;;;4.10;;
18732;SDS011;9495;51.210;2.934;2024-03-02T04:58:25;6.43;;;3.17;;
18732;SDS011;9495;51.210;2.934;2024-03-02T05:00:53;7.13;;;3.30;;
18732;SDS011;9495;51.210;2.934;2024-03-02T05:03:23;7.30;;;3.57;;
18732;SDS011;9495;51.210;2.934;2024-03-02T05:05:52;11.40;;;2.80;;
18732;SDS011;9495;51.210;2.934;2024-03-02T05:08:20;4.27;;;2.90;;
18732;SDS011;9495;51.210;2.934;2024-03-02T05:10:49;10.20;;;2.97;;
18732;SDS011;9495;51.210;2.934;2024-03-02T05:13:18;11.57;;;3.17;;
18732;SDS011;9495;51.210;2.934;2024-03-02T05:15:48;5.53;;;2.33;;
18732;SDS011;9495;51.210;2.934;2024-03-02T05:18:17;5.53;;;3.43;;
18732;SDS011;9495;51.210;2.934;2024-03-02T05:20:46;8.00;;;3.13;;
18732;SDS011;9495;51.210;2.934;2024-03-02T05:23:14;7.13;;;2.40;;
18732;SDS011;9495;51.210;2.934;2024-03-02T05:25:43;7.27;;;2.73;;
18732;SDS011;9495;51.210;2.934;2024-03-02T05:28:12;8.53;;;2.70;;
18732;SDS011;9495;51.210;2.934;2024-03-02T05:30:42;8.53;;;2.40;;
18732;SDS011;9495;51.210;2.934;2024-03-02T05:33:12;9.03;;;2.27;;
18732;SDS011;9495;51.210;2.934;2024-03-02T05:35:40;5.77;;;2.43;;
18732;SDS011;9495;51.210;2.934;2024-03-02T05:38:09;8.67;;;2.70;;
18732;SDS011;9495;51.210;2.934;2024-03-02T05:40:37;4.07;;;1.70;;
18732;SDS011;9495;51.210;2.934;2024-03-02T05:43:06;10.37;;;2.13;;
18732;SDS011;9495;51.210;2.934;2024-03-02T05:45:34;6.03;;;1.90;;
18732;SDS011;9495;51.210;2.934;2024-03-02T05:48:03;6.87;;;2.10;;
18732;SDS011;9495;51.210;2.934;2024-03-02T05:50:33;6.17;;;2.10;;
18732;SDS011;9495;51.210;2.934;2024-03-02T05:53:01;6.57;;;2.03;;
18732;SDS011;9495;51.210;2.934;2024-03-02T05:55:30;7.67;;;2.00;;
18732;SDS011;9495;51.210;2.934;2024-03-02T05:57:59;8.07;;;2.00;;
18732;SDS011;9495;51.210;2.934;2024-03-02T06:00:43;1.77;;;0.87;;
18732;SDS011;9495;51.210;2.934;2024-03-02T06:03:12;5.10;;;1.90;;
18732;SDS011;9495;51.210;2.934;2024-03-02T06:05:42;5.53;;;2.00;;
18732;SDS011;9495;51.210;2.934;2024-03-02T06:08:11;8.13;;;2.30;;
18732;SDS011;9495;51.210;2.934;2024-03-02T06:10:39;7.10;;;2.57;;
18732;SDS011;9495;51.210;2.934;2024-03-02T06:13:08;6.97;;;2.00;;
18732;SDS011;9495;51.210;2.934;2024-03-02T06:15:37;6.93;;;1.80;;
18732;SDS011;9495;51.210;2.934;2024-03-02T06:18:05;9.57;;;2.30;;
18732;SDS011;9495;51.210;2.934;2024-03-02T06:20:34;6.43;;;2.07;;
18732;SDS011;9495;51.210;2.934;2024-03-02T06:23:05;6.57;;;2.50;;
18732;SDS011;9495;51.210;2.934;2024-03-02T06:25:33;5.13;;;2.20;;
18732;SDS011;9495;51.210;2.934;2024-03-02T06:28:01;7.10;;;2.57;;
18732;SDS011;9495;51.210;2.934;2024-03-02T06:30:31;6.80;;;2.33;;
18732;SDS011;9495;51.210;2.934;2024-03-02T06:33:00;8.77;;;2.30;;
18732;SDS011;9495;51.210;2.934;2024-03-02T06:35:30;7.50;;;1.83;;
18732;SDS011;9495;51.210;2.934;2024-03-02T06:37:58;4.17;;;1.70;;
18732;SDS011;9495;51.210;2.934;2024-03-02T06:40:28;7.17;;;2.00;;
18732;SDS011;9495;51.210;2.934;2024-03-02T06:42:57;5.60;;;1.53;;
18732;SDS011;9495;51.210;2.934;2024-03-02T06:45:26;4.20;;;1.43;;
18732;SDS011;9495;51.210;2.934;2024-03-02T06:47:55;5.80;;;2.30;;
18732;SDS011;9495;51.210;2.934;2024-03-02T06:50:23;7.10;;;1.93;;
18732;SDS011;9495;51.210;2.934;2024-03-02T06:52:53;9.00;;;1.83;;
18732;SDS011;9495;51.210;2.934;2024-03-02T06:55:22;5.93;;;1.80;;
18732;SDS011;9495;51.210;2.934;2024-03-02T06:57:52;7.13;;;1.87;;
18732;SDS011;9495;51.210;2.934;2024-03-02T07:00:21;7.17;;;1.40;;
18732;SDS011;9495;51.210;2.934;2024-03-02T07:02:50;7.17;;;1.97;;
18732;SDS011;9495;51.210;2.934;2024-03-02T07:05:19;8.73;;;1.80;;
18732;SDS011;9495;51.210;2.934;2024-03-02T07:07:48;4.50;;;1.63;;
18732;SDS011;9495;51.210;2.934;2024-03-02T07:10:17;8.40;;;2.13;;
18732;SDS011;9495;51.210;2.934;2024-03-02T07:12:45;9.17;;;1.70;;
18732;SDS011;9495;51.210;2.934;2024-03-02T07:15:15;4.70;;;1.70;;
18732;SDS011;9495;51.210;2.934;2024-03-02T07:18:09;8.30;;;1.23;;
18732;SDS011;9495;51.210;2.934;2024-03-02T07:20:38;5.43;;;1.80;;
18732;SDS011;9495;51.210;2.934;2024-03-02T07:23:06;5.70;;;1.70;;
18732;SDS011;9495;51.210;2.934;2024-03-02T07:25:35;5.33;;;1.53;;
18732;SDS011;9495;51.210;2.934;2024-03-02T07:28:08;6.00;;;1.87;;
18732;SDS011;9495;51.210;2.934;2024-03-02T07:30:38;7.63;;;1.90;;
18732;SDS011;9495;51.210;2.934;2024-03-02T07:33:06;8.67;;;1.60;;
18732;SDS011;9495;51.210;2.934;2024-03-02T07:35:35;6.97;;;1.60;;
18732;SDS011;9495;51.210;2.934;2024-03-02T07:38:04;5.63;;;1.30;;
18732;SDS011;9495;51.210;2.934;2024-03-02T07:40:32;6.93;;;1.87;;
18732;SDS011;9495;51.210;2.934;2024-03-02T07:43:01;6.00;;;2.10;;
18732;SDS011;9495;51.210;2.934;2024-03-02T07:45:29;9.30;;;1.90;;
18732;SDS011;9495;51.210;2.934;2024-03-02T07:47:59;3.13;;;0.93;;
18732;SDS011;9495;51.210;2.934;2024-03-02T07:50:30;8.02;;;1.60;;
18732;SDS011;9495;51.210;2.934;2024-03-02T07:53:01;7.63;;;1.90;;
18732;SDS011;9495;51.210;2.934;2024-03-02T07:55:30;6.43;;;1.70;;
18732;SDS011;9495;51.210;2.934;2024-03-02T07:57:58;9.20;;;1.63;;
18732;SDS011;9495;51.210;2.934;2024-03-02T08:00:27;8.83;;;2.03;;
18732;SDS011;9495;51.210;2.934;2024-03-02T08:02:56;8.27;;;1.98;;
18732;SDS011;9495;51.210;2.934;2024-03-02T08:05:26;6.38;;;1.17;;
18732;SDS011;9495;51.210;2.934;2024-03-02T08:07:55;8.88;;;1.80;;
18732;SDS011;9495;51.210;2.934;2024-03-02T08:10:23;4.85;;;1.60;;
18732;SDS011;9495;51.210;2.934;2024-03-02T08:12:52;10.23;;;2.03;;
18732;SDS011;9495;51.210;2.934;2024-03-02T08:15:21;7.28;;;1.83;;
18732;SDS011;9495;51.210;2.934;2024-03-02T08:17:50;9.13;;;2.25;;
18732;SDS011;9495;51.210;2.934;2024-03-02T08:20:19;6.68;;;1.20;;
18732;SDS011;9495;51.210;2.934;2024-03-02T08:22:48;5.30;;;1.40;;
18732;SDS011;9495;51.210;2.934;2024-03-02T08:25:17;8.07;;;2.15;;
18732;SDS011;9495;51.210;2.934;2024-03-02T08:27:45;6.10;;;1.33;;
18732;SDS011;9495;51.210;2.934;2024-03-02T08:30:14;5.03;;;1.70;;
18732;SDS011;9495;51.210;2.934;2024-03-02T08:32:42;10.32;;;2.20;;
18732;SDS011;9495;51.210;2.934;2024-03-02T08:35:11;9.30;;;1.83;;
18732;SDS011;9495;51.210;2.934;2024-03-02T08:37:40;10.02;;;2.25;;
18732;SDS011;9495;51.210;2.934;2024-03-02T08:40:11;7.00;;;1.25;;
18732;SDS011;9495;51.210;2.934;2024-03-02T08:42:44;12.52;;;2.25;;
18732;SDS011;9495;51.210;2.934;2024-03-02T08:45:14;11.95;;;2.67;;
18732;SDS011;9495;51.210;2.934;2024-03-02T08:47:43;7.97;;;1.63;;
18732;SDS011;9495;51.210;2.934;2024-03-02T08:50:11;12.07;;;1.77;;
18732;SDS011;9495;51.210;2.934;2024-03-02T08:52:40;11.50;;;2.17;;
18732;SDS011;9495;51.210;2.934;2024-03-02T08:55:09;10.25;;;2.15;;
18732;SDS011;9495;51.210;2.934;2024-03-02T08:57:39;8.85;;;1.98;;
18732;SDS011;9495;51.210;2.934;2024-03-02T09:00:09;8.05;;;2.20;;
18732;SDS011;9495;51.210;2.934;2024-03-02T09:02:38;8.13;;;2.08;;
18732;SDS011;9495;51.210;2.934;2024-03-02T09:05:07;9.13;;;1.90;;
18732;SDS011;9495;51.210;2.934;2024-03-02T09:07:36;9.32;;;1.73;;
18732;SDS011;9495;51.210;2.934;2024-03-02T09:10:05;10.60;;;2.60;;
18732;SDS011;9495;51.210;2.934;2024-03-02T09:12:36;8.03;;;1.80;;
18732;SDS011;9495;51.210;2.934;2024-03-02T09:15:06;5.68;;;1.15;;
18732;SDS011;9495;51.210;2.934;2024-03-02T09:17:35;8.63;;;1.65;;
18732;SDS011;9495;51.210;2.934;2024-03-02T09:20:04;8.35;;;1.83;;
18732;SDS011;9495;51.210;2.934;2024-03-02T09:22:33;6.57;;;1.75;;
18732;SDS011;9495;51.210;2.934;2024-03-02T09:25:02;13.45;;;2.38;;
18732;SDS011;9495;51.210;2.934;2024-03-02T09:27:31;10.13;;;2.35;;
18732;SDS011;9495;51.210;2.934;2024-03-02T09:30:01;5.80;;;1.90;;
18732;SDS011;9495;51.210;2.934;2024-03-02T09:32:29;8.90;;;2.10;;
18732;SDS011;9495;51.210;2.934;2024-03-02T09:34:58;10.60;;;1.98;;
18732;SDS011;9495;51.210;2.934;2024-03-02T09:37:27;9.27;;;2.00;;
18732;SDS011;9495;51.210;2.934;2024-03-02T09:39:56;5.68;;;1.10;;
18732;SDS011;9495;51.210;2.934;2024-03-02T09:42:25;10.15;;;2.70;;
18732;SDS011;9495;51.210;2.934;2024-03-02T09:44:54;10.70;;;2.10;;
18732;SDS011;9495;51.210;2.934;2024-03-02T09:47:25;5.97;;;1.23;;
18732;SDS011;9495;51.210;2.934;2024-03-02T09:49:54;6.15;;;1.67;;
18732;SDS011;9495;51.210;2.934;2024-03-02T09:52:23;11.32;;;1.92;;
18732;SDS011;9495;51.210;2.934;2024-03-02T09:54:51;11.52;;;2.55;;
18732;SDS011;9495;51.210;2.934;2024-03-02T09:57:20;7.90;;;1.88;;
18732;SDS011;9495;51.210;2.934;2024-03-02T09:59:48;10.55;;;2.67;;
18732;SDS011;9495;51.210;2.934;2024-03-02T10:02:17;9.23;;;1.73;;
18732;SDS011;9495;51.210;2.934;2024-03-02T10:04:48;9.25;;;2.72;;
18732;SDS011;9495;51.210;2.934;2024-03-02T10:07:17;10.32;;;1.98;;
18732;SDS011;9495;51.210;2.934;2024-03-02T10:09:46;9.05;;;2.15;;
18732;SDS011;9495;51.210;2.934;2024-03-02T10:12:16;7.77;;;1.20;;
18732;SDS011;9495;51.210;2.934;2024-03-02T10:14:46;7.68;;;1.92;;
18732;SDS011;9495;51.210;2.934;2024-03-02T10:17:16;13.00;;;2.20;;
18732;SDS011;9495;51.210;2.934;2024-03-02T10:19:45;7.32;;;1.67;;
18732;SDS011;9495;51.210;2.934;2024-03-02T10:22:15;11.55;;;2.35;;
18732;SDS011;9495;51.210;2.934;2024-03-02T10:24:43;7.28;;;1.83;;
18732;SDS011;9495;51.210;2.934;2024-03-02T10:27:15;10.20;;;2.85;;
18732;SDS011;9495;51.210;2.934;2024-03-02T10:29:45;5.60;;;1.40;;
18732;SDS011;9495;51.210;2.934;2024-03-02T10:32:14;9.25;;;2.20;;
18732;SDS011;9495;51.210;2.934;2024-03-02T10:34:44;10.25;;;2.13;;
18732;SDS011;9495;51.210;2.934;2024-03-02T10:37:15;14.13;;;2.20;;
18732;SDS011;9495;51.210;2.934;2024-03-02T10:39:45;7.82;;;2.10;;
18732;SDS011;9495;51.210;2.934;2024-03-02T10:42:14;10.20;;;1.90;;
18732;SDS011;9495;51.210;2.934;2024-03-02T10:44:44;11.85;;;1.85;;
18732;SDS011;9495;51.210;2.934;2024-03-02T10:47:13;8.18;;;2.05;;
18732;SDS011;9495;51.210;2.934;2024-03-02T10:49:43;21.85;;;2.67;;
18732;SDS011;9495;51.210;2.934;2024-03-02T10:52:16;9.32;;;2.13;;
18732;SDS011;9495;51.210;2.934;2024-03-02T10:54:44;10.20;;;2.05;;
18732;SDS011;9495;51.210;2.934;2024-03-02T10:57:13;6.68;;;2.15;;
18732;SDS011;9495;51.210;2.934;2024-03-02T10:59:45;7.38;;;2.17;;
18732;SDS011;9495;51.210;2.934;2024-03-02T11:02:20;15.32;;;2.30;;
18732;SDS011;9495;51.210;2.934;2024-03-02T11:04:50;9.77;;;2.10;;
18732;SDS011;9495;51.210;2.934;2024-03-02T11:07:24;6.60;;;1.70;;
18732;SDS011;9495;51.210;2.934;2024-03-02T11:09:54;8.13;;;2.40;;
18732;SDS011;9495;51.210;2.934;2024-03-02T11:12:28;9.25;;;1.88;;
18732;SDS011;9495;51.210;2.934;2024-03-02T11:14:57;13.35;;;2.75;;
18732;SDS011;9495;51.210;2.934;2024-03-02T11:17:28;10.38;;;2.17;;
18732;SDS011;9495;51.210;2.934;2024-03-02T11:19:56;10.40;;;2.10;;
18732;SDS011;9495;51.210;2.934;2024-03-02T11:22:27;11.60;;;1.90;;
18732;SDS011;9495;51.210;2.934;2024-03-02T11:24:56;10.40;;;1.90;;
18732;SDS011;9495;51.210;2.934;2024-03-02T11:33:22;7.53;;;1.90;;
18732;SDS011;9495;51.210;2.934;2024-03-02T11:35:54;8.23;;;2.10;;
18732;SDS011;9495;51.210;2.934;2024-03-02T11:38:29;5.97;;;1.35;;
18732;SDS011;9495;51.210;2.934;2024-03-02T11:40:59;12.75;;;2.20;;
18732;SDS011;9495;51.210;2.934;2024-03-02T11:43:28;10.05;;;2.30;;
18732;SDS011;9495;51.210;2.934;2024-03-02T11:45:58;7.93;;;2.22;;
18732;SDS011;9495;51.210;2.934;2024-03-02T11:48:27;7.93;;;1.80;;
18732;SDS011;9495;51.210;2.934;2024-03-02T11:50:58;7.10;;;2.03;;
18732;SDS011;9495;51.210;2.934;2024-03-02T11:53:29;7.53;;;2.17;;
18732;SDS011;9495;51.210;2.934;2024-03-02T11:56:01;7.05;;;2.13;;
18732;SDS011;9495;51.210;2.934;2024-03-02T11:58:32;5.13;;;1.65;;
18732;SDS011;9495;51.210;2.934;2024-03-02T12:01:04;8.68;;;1.65;;
18732;SDS011;9495;51.210;2.934;2024-03-02T12:03:33;6.22;;;1.98;;
18732;SDS011;9495;51.210;2.934;2024-03-02T12:06:03;7.75;;;2.00;;
18732;SDS011;9495;51.210;2.934;2024-03-02T12:08:34;12.80;;;2.33;;
18732;SDS011;9495;51.210;2.934;2024-03-02T12:11:04;8.68;;;2.22;;
18732;SDS011;9495;51.210;2.934;2024-03-02T12:13:34;5.80;;;1.65;;
18732;SDS011;9495;51.210;2.934;2024-03-02T12:16:03;8.90;;;2.13;;
18732;SDS011;9495;51.210;2.934;2024-03-02T12:18:32;6.35;;;1.40;;
18732;SDS011;9495;51.210;2.934;2024-03-02T12:21:00;6.68;;;2.33;;
18732;SDS011;9495;51.210;2.934;2024-03-02T12:23:30;9.55;;;2.20;;
18732;SDS011;9495;51.210;2.934;2024-03-02T12:26:00;10.38;;;2.33;;
18732;SDS011;9495;51.210;2.934;2024-03-02T12:28:29;7.65;;;1.70;;
18732;SDS011;9495;51.210;2.934;2024-03-02T12:30:59;7.13;;;1.83;;
18732;SDS011;9495;51.210;2.934;2024-03-02T12:33:27;4.80;;;1.50;;
18732;SDS011;9495;51.210;2.934;2024-03-02T12:35:57;9.73;;;1.83;;
18732;SDS011;9495;51.210;2.934;2024-03-02T12:38:26;8.48;;;1.75;;
18732;SDS011;9495;51.210;2.934;2024-03-02T12:40:56;4.97;;;1.50;;
18732;SDS011;9495;51.210;2.934;2024-03-02T12:43:29;6.32;;;2.10;;
18732;SDS011;9495;51.210;2.934;2024-03-02T12:45:58;5.20;;;1.48;;
18732;SDS011;9495;51.210;2.934;2024-03-02T12:48:27;3.65;;;1.35;;
18732;SDS011;9495;51.210;2.934;2024-03-02T12:50:56;7.55;;;1.90;;
18732;SDS011;9495;51.210;2.934;2024-03-02T12:53:24;8.07;;;2.10;;
18732;SDS011;9495;51.210;2.934;2024-03-02T12:55:53;5.45;;;1.70;;
18732;SDS011;9495;51.210;2.934;2024-03-02T12:58:22;5.45;;;1.58;;
18732;SDS011;9495;51.210;2.934;2024-03-02T13:00:55;4.22;;;1.40;;
18732;SDS011;9495;51.210;2.934;2024-03-02T13:03:34;4.03;;;1.73;;
18732;SDS011;9495;51.210;2.934;2024-03-02T13:06:04;7.97;;;1.77;;
18732;SDS011;9495;51.210;2.934;2024-03-02T13:08:33;8.52;;;1.80;;
18732;SDS011;9495;51.210;2.934;2024-03-02T13:11:02;7.40;;;2.10;;
18732;SDS011;9495;51.210;2.934;2024-03-02T13:13:34;5.20;;;1.63;;
18732;SDS011;9495;51.210;2.934;2024-03-02T13:16:04;3.22;;;1.52;;
18732;SDS011;9495;51.210;2.934;2024-03-02T13:18:35;6.43;;;1.80;;
18732;SDS011;9495;51.210;2.934;2024-03-02T13:21:04;4.60;;;1.55;;
18732;SDS011;9495;51.210;2.934;2024-03-02T13:23:33;5.40;;;1.77;;
18732;SDS011;9495;51.210;2.934;2024-03-02T13:26:01;5.78;;;1.63;;
18732;SDS011;9495;51.210;2.934;2024-03-02T13:28:31;3.70;;;1.50;;
18732;SDS011;9495;51.210;2.934;2024-03-02T13:30:59;6.32;;;1.75;;
18732;SDS011;9495;51.210;2.934;2024-03-02T13:33:29;4.63;;;1.80;;
18732;SDS011;9495;51.210;2.934;2024-03-02T13:35:59;6.35;;;1.60;;
18732;SDS011;9495;51.210;2.934;2024-03-02T13:38:29;3.30;;;1.30;;
18732;SDS011;9495;51.210;2.934;2024-03-02T13:40:58;4.50;;;1.87;;
18732;SDS011;9495;51.210;2.934;2024-03-02T13:43:27;5.60;;;1.67;;
18732;SDS011;9495;51.210;2.934;2024-03-02T13:45:58;7.17;;;2.70;;
18732;SDS011;9495;51.210;2.934;2024-03-02T13:48:27;5.13;;;2.17;;
18732;SDS011;9495;51.210;2.934;2024-03-02T13:50:56;5.47;;;2.50;;
18732;SDS011;9495;51.210;2.934;2024-03-02T13:53:25;4.60;;;1.97;;
18732;SDS011;9495;51.210;2.934;2024-03-02T13:55:54;5.70;;;2.53;;
18732;SDS011;9495;51.210;2.934;2024-03-02T13:58:23;5.00;;;2.00;;
18732;SDS011;9495;51.210;2.934;2024-03-02T14:00:51;3.30;;;1.30;;
18732;SDS011;9495;51.210;2.934;2024-03-02T14:03:20;1.97;;;0.80;;
18732;SDS011;9495;51.210;2.934;2024-03-02T14:05:49;2.13;;;0.90;;
18732;SDS011;9495;51.210;2.934;2024-03-02T14:08:20;4.43;;;1.13;;
18732;SDS011;9495;51.210;2.934;2024-03-02T14:10:49;2.70;;;1.00;;
18732;SDS011;9495;51.210;2.934;2024-03-02T14:13:18;3.10;;;1.23;;
18732;SDS011;9495;51.210;2.934;2024-03-02T14:15:47;3.00;;;1.10;;
18732;SDS011;9495;51.210;2.934;2024-03-02T14:18:15;2.17;;;1.13;;
18732;SDS011;9495;51.210;2.934;2024-03-02T14:20:44;4.33;;;1.23;;
18732;SDS011;9495;51.210;2.934;2024-03-02T14:23:15;3.33;;;1.20;;
18732;SDS011;9495;51.210;2.934;2024-03-02T14:25:45;4.37;;;1.50;;
18732;SDS011;9495;51.210;2.934;2024-03-02T14:28:14;3.00;;;1.60;;
18732;SDS011;9495;51.210;2.934;2024-03-02T14:31:03;8.33;;;4.13;;
18732;SDS011;9495;51.210;2.934;2024-03-02T14:33:31;10.37;;;5.00;;
18732;SDS011;9495;51.210;2.934;2024-03-02T14:36:01;9.20;;;3.90;;
18732;SDS011;9495;51.210;2.934;2024-03-02T14:38:30;3.00;;;1.40;;
18732;SDS011;9495;51.210;2.934;2024-03-02T14:41:00;3.93;;;2.00;;
18732;SDS011;9495;51.210;2.934;2024-03-02T14:43:29;4.60;;;1.83;;
18732;SDS011;9495;51.210;2.934;2024-03-02T14:45:58;4.53;;;2.27;;
18732;SDS011;9495;51.210;2.934;2024-03-02T14:48:27;5.57;;;2.20;;
18732;SDS011;9495;51.210;2.934;2024-03-02T14:50:55;4.10;;;1.70;;
18732;SDS011;9495;51.210;2.934;2024-03-02T14:53:24;3.40;;;2.13;;
18732;SDS011;9495;51.210;2.934;2024-03-02T14:55:53;8.37;;;2.77;;
18732;SDS011;9495;51.210;2.934;2024-03-02T14:58:23;5.37;;;2.40;;
18732;SDS011;9495;51.210;2.934;2024-03-02T15:00:52;5.97;;;2.40;;
18732;SDS011;9495;51.210;2.934;2024-03-02T15:03:21;4.43;;;1.90;;
18732;SDS011;9495;51.210;2.934;2024-03-02T15:05:50;5.07;;;1.70;;
18732;SDS011;9495;51.210;2.934;2024-03-02T15:08:19;4.93;;;2.00;;
18732;SDS011;9495;51.210;2.934;2024-03-02T15:10:48;4.87;;;2.07;;
18732;SDS011;9495;51.210;2.934;2024-03-02T15:13:16;4.93;;;1.93;;
18732;SDS011;9495;51.210;2.934;2024-03-02T15:15:46;5.87;;;2.07;;
18732;SDS011;9495;51.210;2.934;2024-03-02T15:18:15;3.53;;;1.83;;
18732;SDS011;9495;51.210;2.934;2024-03-02T15:20:44;4.87;;;1.80;;